sensor_id;sensor_type;location;lat;lon;timestamp;P1;durP1;ratioP1;P2;durP2;ratioP2
7817;SDS011;3954;52.624;9.212;2024-01-15T00:00:51;7.40;;;4.33;;
7817;SDS011;3954;52.624;9.212;2024-01-15T00:03:17;7.27;;;3.87;;
7817;SDS011;3954;52.624;9.212;2024-01-15T00:05:44;8.67;;;3.60;;
7817;SDS011;3954;52.624;9.212;2024-01-15T00:08:10;6.17;;;3.77;;
7817;SDS011;3954;52.624;9.212;2024-01-15T00:10:36;6.43;;;3.43;;
7817;SDS011;3954;52.624;9.212;2024-01-15T00:13:03;7.70;;;3.40;;
7817;SDS011;3954;52.624;9.212;2024-01-15T00:15:29;8.30;;;5.03;;
7817;SDS011;3954;52.624;9.212;2024-01-15T00:17:55;7.43;;;3.70;;
7817;SDS011;3954;52.624;9.212;2024-01-15T00:20:21;10.27;;;5.00;;
7817;SDS011;3954;52.624;9.212;2024-01-15T00:22:49;6.53;;;4.20;;
7817;SDS011;3954;52.624;9.212;2024-01-15T00:25:15;6.17;;;4.07;;
7817;SDS011;3954;52.624;9.212;2024-01-15T00:27:41;9.37;;;4.50;;
7817;SDS011;3954;52.624;9.212;2024-01-15T00:30:07;9.50;;;4.13;;
7817;SDS011;3954;52.624;9.212;2024-01-15T00:32:33;5.73;;;3.77;;
7817;SDS011;3954;52.624;9.212;2024-01-15T00:34:59;6.43;;;4.43;;
7817;SDS011;3954;52.624;9.212;2024-01-15T00:37:25;5.77;;;4.00;;
7817;SDS011;3954;52.624;9.212;2024-01-15T00:39:52;6.07;;;3.93;;
7817;SDS011;3954;52.624;9.212;2024-01-15T00:42:18;6.30;;;3.30;;
7817;SDS011;3954;52.624;9.212;2024-01-15T00:44:44;8.30;;;4.10;;
7817;SDS011;3954;52.624;9.212;2024-01-15T00:47:10;9.40;;;3.83;;
7817;SDS011;3954;52.624;9.212;2024-01-15T00:49:36;7.27;;;4.00;;
7817;SDS011;3954;52.624;9.212;2024-01-15T00:52:02;8.40;;;4.00;;
7817;SDS011;3954;52.624;9.212;2024-01-15T00:54:28;7.23;;;3.43;;
7817;SDS011;3954;52.624;9.212;2024-01-15T00:56:55;7.37;;;4.03;;
7817;SDS011;3954;52.624;9.212;2024-01-15T00:59:21;6.20;;;3.30;;
7817;SDS011;3954;52.624;9.212;2024-01-15T01:01:47;7.07;;;3.33;;
7817;SDS011;3954;52.624;9.212;2024-01-15T01:04:14;6.00;;;3.40;;
7817;SDS011;3954;52.624;9.212;2024-01-15T01:06:40;7.27;;;3.50;;
7817;SDS011;3954;52.624;9.212;2024-01-15T01:09:06;7.97;;;3.07;;
7817;SDS011;3954;52.624;9.212;2024-01-15T01:11:32;7.90;;;3.07;;
7817;SDS011;3954;52.624;9.212;2024-01-15T01:13:59;7.87;;;3.53;;
7817;SDS011;3954;52.624;9.212;2024-01-15T01:16:26;8.67;;;3.13;;
7817;SDS011;3954;52.624;9.212;2024-01-15T01:18:52;6.20;;;2.97;;
7817;SDS011;3954;52.624;9.212;2024-01-15T01:21:18;6.20;;;2.73;;
7817;SDS011;3954;52.624;9.212;2024-01-15T01:23:44;6.27;;;2.63;;
7817;SDS011;3954;52.624;9.212;2024-01-15T01:26:10;7.23;;;3.03;;
7817;SDS011;3954;52.624;9.212;2024-01-15T01:28:36;9.37;;;3.37;;
7817;SDS011;3954;52.624;9.212;2024-01-15T01:31:04;8.53;;;3.57;;
7817;SDS011;3954;52.624;9.212;2024-01-15T01:33:30;7.43;;;3.07;;
7817;SDS011;3954;52.624;9.212;2024-01-15T01:35:56;8.37;;;3.07;;
7817;SDS011;3954;52.624;9.212;2024-01-15T01:38:22;6.47;;;2.97;;
7817;SDS011;3954;52.624;9.212;2024-01-15T01:40:48;6.20;;;3.30;;
7817;SDS011;3954;52.624;9.212;2024-01-15T01:43:14;6.50;;;3.10;;
7817;SDS011;3954;52.624;9.212;2024-01-15T01:45:40;8.67;;;3.20;;
7817;SDS011;3954;52.624;9.212;2024-01-15T01:48:07;3.97;;;2.90;;
7817;SDS011;3954;52.624;9.212;2024-01-15T01:50:33;5.77;;;2.83;;
7817;SDS011;3954;52.624;9.212;2024-01-15T01:52:59;6.13;;;2.70;;
7817;SDS011;3954;52.624;9.212;2024-01-15T01:55:26;6.87;;;3.23;;
7817;SDS011;3954;52.624;9.212;2024-01-15T01:57:53;8.23;;;2.57;;
7817;SDS011;3954;52.624;9.212;2024-01-15T02:00:20;8.60;;;2.27;;
7817;SDS011;3954;52.624;9.212;2024-01-15T02:02:46;5.23;;;2.27;;
7817;SDS011;3954;52.624;9.212;2024-01-15T02:05:13;7.27;;;2.57;;
7817;SDS011;3954;52.624;9.212;2024-01-15T02:07:39;6.47;;;2.73;;
7817;SDS011;3954;52.624;9.212;2024-01-15T02:10:06;6.10;;;2.07;;
7817;SDS011;3954;52.624;9.212;2024-01-15T02:12:32;6.33;;;2.30;;
7817;SDS011;3954;52.624;9.212;2024-01-15T02:14:58;10.70;;;2.53;;
7817;SDS011;3954;52.624;9.212;2024-01-15T02:17:24;7.27;;;2.60;;
7817;SDS011;3954;52.624;9.212;2024-01-15T02:19:50;7.20;;;2.00;;
7817;SDS011;3954;52.624;9.212;2024-01-15T02:22:18;6.10;;;2.07;;
7817;SDS011;3954;52.624;9.212;2024-01-15T02:24:45;9.83;;;2.43;;
7817;SDS011;3954;52.624;9.212;2024-01-15T02:27:11;7.27;;;2.13;;
7817;SDS011;3954;52.624;9.212;2024-01-15T02:29:37;5.27;;;1.93;;
7817;SDS011;3954;52.624;9.212;2024-01-15T02:32:04;6.23;;;2.67;;
7817;SDS011;3954;52.624;9.212;2024-01-15T02:34:31;6.97;;;2.23;;
7817;SDS011;3954;52.624;9.212;2024-01-15T02:36:57;8.00;;;2.60;;
7817;SDS011;3954;52.624;9.212;2024-01-15T02:39:23;5.37;;;2.13;;
7817;SDS011;3954;52.624;9.212;2024-01-15T02:41:50;6.10;;;2.23;;
7817;SDS011;3954;52.624;9.212;2024-01-15T02:44:16;5.57;;;2.37;;
7817;SDS011;3954;52.624;9.212;2024-01-15T02:46:42;3.93;;;1.80;;
7817;SDS011;3954;52.624;9.212;2024-01-15T02:49:08;7.93;;;2.77;;
7817;SDS011;3954;52.624;9.212;2024-01-15T02:51:34;6.47;;;2.10;;
7817;SDS011;3954;52.624;9.212;2024-01-15T02:54:00;6.63;;;2.20;;
7817;SDS011;3954;52.624;9.212;2024-01-15T02:56:26;8.87;;;2.30;;
7817;SDS011;3954;52.624;9.212;2024-01-15T02:58:53;7.53;;;2.13;;
7817;SDS011;3954;52.624;9.212;2024-01-15T03:01:19;5.07;;;2.27;;
7817;SDS011;3954;52.624;9.212;2024-01-15T03:03:45;5.17;;;2.10;;
7817;SDS011;3954;52.624;9.212;2024-01-15T03:06:11;7.17;;;2.07;;
7817;SDS011;3954;52.624;9.212;2024-01-15T03:08:37;8.90;;;2.27;;
7817;SDS011;3954;52.624;9.212;2024-01-15T03:11:03;5.13;;;2.10;;
7817;SDS011;3954;52.624;9.212;2024-01-15T03:13:29;6.13;;;2.03;;
7817;SDS011;3954;52.624;9.212;2024-01-15T03:15:56;9.23;;;2.60;;
7817;SDS011;3954;52.624;9.212;2024-01-15T03:18:22;8.13;;;1.97;;
7817;SDS011;3954;52.624;9.212;2024-01-15T03:20:48;7.23;;;2.40;;
7817;SDS011;3954;52.624;9.212;2024-01-15T03:23:14;5.63;;;2.13;;
7817;SDS011;3954;52.624;9.212;2024-01-15T03:25:40;5.73;;;1.90;;
7817;SDS011;3954;52.624;9.212;2024-01-15T03:28:06;6.00;;;2.20;;
7817;SDS011;3954;52.624;9.212;2024-01-15T03:30:32;6.17;;;2.10;;
7817;SDS011;3954;52.624;9.212;2024-01-15T03:32:59;8.87;;;2.47;;
7817;SDS011;3954;52.624;9.212;2024-01-15T03:35:25;6.47;;;2.20;;
7817;SDS011;3954;52.624;9.212;2024-01-15T03:37:54;8.47;;;2.30;;
7817;SDS011;3954;52.624;9.212;2024-01-15T03:40:20;8.00;;;1.97;;
7817;SDS011;3954;52.624;9.212;2024-01-15T03:42:46;6.03;;;2.13;;
7817;SDS011;3954;52.624;9.212;2024-01-15T03:45:12;8.53;;;2.47;;
7817;SDS011;3954;52.624;9.212;2024-01-15T03:47:38;10.30;;;2.47;;
7817;SDS011;3954;52.624;9.212;2024-01-15T03:50:06;5.67;;;1.80;;
7817;SDS011;3954;52.624;9.212;2024-01-15T03:52:32;5.13;;;1.90;;
7817;SDS011;3954;52.624;9.212;2024-01-15T03:54:58;4.87;;;1.80;;
7817;SDS011;3954;52.624;9.212;2024-01-15T03:57:24;6.80;;;1.87;;
7817;SDS011;3954;52.624;9.212;2024-01-15T03:59:50;8.70;;;2.47;;
7817;SDS011;3954;52.624;9.212;2024-01-15T04:02:16;7.83;;;2.23;;
7817;SDS011;3954;52.624;9.212;2024-01-15T04:04:43;5.70;;;2.73;;
7817;SDS011;3954;52.624;9.212;2024-01-15T04:07:11;6.97;;;2.27;;
7817;SDS011;3954;52.624;9.212;2024-01-15T04:09:37;5.90;;;2.17;;
7817;SDS011;3954;52.624;9.212;2024-01-15T04:12:03;8.00;;;2.20;;
7817;SDS011;3954;52.624;9.212;2024-01-15T04:14:29;5.40;;;2.43;;
7817;SDS011;3954;52.624;9.212;2024-01-15T04:16:55;6.10;;;2.23;;
7817;SDS011;3954;52.624;9.212;2024-01-15T04:19:21;7.60;;;2.77;;
7817;SDS011;3954;52.624;9.212;2024-01-15T04:21:47;4.53;;;2.17;;
7817;SDS011;3954;52.624;9.212;2024-01-15T04:24:14;3.20;;;2.13;;
7817;SDS011;3954;52.624;9.212;2024-01-15T04:26:42;6.20;;;2.47;;
7817;SDS011;3954;52.624;9.212;2024-01-15T04:29:08;6.30;;;1.90;;
7817;SDS011;3954;52.624;9.212;2024-01-15T04:31:34;6.80;;;1.97;;
7817;SDS011;3954;52.624;9.212;2024-01-15T04:34:00;5.43;;;2.00;;
7817;SDS011;3954;52.624;9.212;2024-01-15T04:36:26;4.10;;;2.10;;
7817;SDS011;3954;52.624;9.212;2024-01-15T04:38:52;5.10;;;2.13;;
7817;SDS011;3954;52.624;9.212;2024-01-15T04:41:20;7.30;;;2.67;;
7817;SDS011;3954;52.624;9.212;2024-01-15T04:43:46;7.37;;;2.47;;
7817;SDS011;3954;52.624;9.212;2024-01-15T04:46:12;5.53;;;2.60;;
7817;SDS011;3954;52.624;9.212;2024-01-15T04:48:38;6.20;;;2.53;;
7817;SDS011;3954;52.624;9.212;2024-01-15T04:51:04;7.23;;;2.40;;
7817;SDS011;3954;52.624;9.212;2024-01-15T04:53:31;10.23;;;2.67;;
7817;SDS011;3954;52.624;9.212;2024-01-15T04:55:57;5.10;;;2.43;;
7817;SDS011;3954;52.624;9.212;2024-01-15T04:58:24;8.07;;;2.60;;
7817;SDS011;3954;52.624;9.212;2024-01-15T05:00:52;6.80;;;2.40;;
7817;SDS011;3954;52.624;9.212;2024-01-15T05:03:19;6.17;;;1.90;;
7817;SDS011;3954;52.624;9.212;2024-01-15T05:05:45;5.13;;;2.30;;
7817;SDS011;3954;52.624;9.212;2024-01-15T05:08:11;9.57;;;2.70;;
7817;SDS011;3954;52.624;9.212;2024-01-15T05:10:37;11.60;;;2.80;;
7817;SDS011;3954;52.624;9.212;2024-01-15T05:13:03;9.17;;;2.40;;
7817;SDS011;3954;52.624;9.212;2024-01-15T05:15:30;6.77;;;2.27;;
7817;SDS011;3954;52.624;9.212;2024-01-15T05:17:56;5.10;;;2.37;;
7817;SDS011;3954;52.624;9.212;2024-01-15T05:20:22;3.97;;;2.20;;
7817;SDS011;3954;52.624;9.212;2024-01-15T05:22:48;3.53;;;2.40;;
7817;SDS011;3954;52.624;9.212;2024-01-15T05:25:14;7.50;;;2.20;;
7817;SDS011;3954;52.624;9.212;2024-01-15T05:27:40;4.40;;;1.93;;
7817;SDS011;3954;52.624;9.212;2024-01-15T05:30:06;6.73;;;2.13;;
7817;SDS011;3954;52.624;9.212;2024-01-15T05:32:34;4.63;;;2.37;;
7817;SDS011;3954;52.624;9.212;2024-01-15T05:35:00;7.53;;;2.60;;
7817;SDS011;3954;52.624;9.212;2024-01-15T05:37:25;6.83;;;2.20;;
7817;SDS011;3954;52.624;9.212;2024-01-15T05:39:51;8.70;;;2.97;;
7817;SDS011;3954;52.624;9.212;2024-01-15T05:42:17;5.30;;;3.00;;
7817;SDS011;3954;52.624;9.212;2024-01-15T05:44:43;6.30;;;3.40;;
7817;SDS011;3954;52.624;9.212;2024-01-15T05:47:09;11.90;;;3.47;;
7817;SDS011;3954;52.624;9.212;2024-01-15T05:49:37;5.70;;;3.40;;
7817;SDS011;3954;52.624;9.212;2024-01-15T05:52:04;9.37;;;3.20;;
7817;SDS011;3954;52.624;9.212;2024-01-15T05:54:30;6.90;;;2.70;;
7817;SDS011;3954;52.624;9.212;2024-01-15T05:56:55;10.83;;;3.07;;
7817;SDS011;3954;52.624;9.212;2024-01-15T05:59:22;5.03;;;2.40;;
7817;SDS011;3954;52.624;9.212;2024-01-15T06:01:48;9.17;;;2.90;;
7817;SDS011;3954;52.624;9.212;2024-01-15T06:04:14;7.73;;;2.67;;
7817;SDS011;3954;52.624;9.212;2024-01-15T06:06:41;5.40;;;2.33;;
7817;SDS011;3954;52.624;9.212;2024-01-15T06:09:07;6.07;;;2.60;;
7817;SDS011;3954;52.624;9.212;2024-01-15T06:11:34;7.30;;;2.50;;
7817;SDS011;3954;52.624;9.212;2024-01-15T06:14:00;11.93;;;3.40;;
7817;SDS011;3954;52.624;9.212;2024-01-15T06:16:26;6.77;;;2.63;;
7817;SDS011;3954;52.624;9.212;2024-01-15T06:18:52;7.57;;;2.73;;
7817;SDS011;3954;52.624;9.212;2024-01-15T06:21:18;9.43;;;2.80;;
7817;SDS011;3954;52.624;9.212;2024-01-15T06:23:45;7.93;;;2.73;;
7817;SDS011;3954;52.624;9.212;2024-01-15T06:26:11;6.60;;;2.13;;
7817;SDS011;3954;52.624;9.212;2024-01-15T06:28:37;8.27;;;2.60;;
7817;SDS011;3954;52.624;9.212;2024-01-15T06:31:03;7.40;;;2.70;;
7817;SDS011;3954;52.624;9.212;2024-01-15T06:33:30;9.47;;;2.73;;
7817;SDS011;3954;52.624;9.212;2024-01-15T06:35:56;5.07;;;2.50;;
7817;SDS011;3954;52.624;9.212;2024-01-15T06:38:22;6.03;;;2.67;;
7817;SDS011;3954;52.624;9.212;2024-01-15T06:40:51;6.93;;;2.63;;
7817;SDS011;3954;52.624;9.212;2024-01-15T06:43:17;10.37;;;2.50;;
7817;SDS011;3954;52.624;9.212;2024-01-15T06:45:43;4.87;;;2.50;;
7817;SDS011;3954;52.624;9.212;2024-01-15T06:48:09;6.77;;;2.50;;
7817;SDS011;3954;52.624;9.212;2024-01-15T06:50:39;4.63;;;2.30;;
7817;SDS011;3954;52.624;9.212;2024-01-15T06:53:05;8.20;;;2.80;;
7817;SDS011;3954;52.624;9.212;2024-01-15T06:55:31;5.00;;;2.60;;
7817;SDS011;3954;52.624;9.212;2024-01-15T06:57:58;7.03;;;2.63;;
7817;SDS011;3954;52.624;9.212;2024-01-15T07:00:25;4.37;;;2.47;;
7817;SDS011;3954;52.624;9.212;2024-01-15T07:02:51;4.87;;;2.40;;
7817;SDS011;3954;52.624;9.212;2024-01-15T07:05:17;6.47;;;2.80;;
7817;SDS011;3954;52.624;9.212;2024-01-15T07:07:43;5.13;;;2.90;;
7817;SDS011;3954;52.624;9.212;2024-01-15T07:10:09;5.20;;;2.37;;
7817;SDS011;3954;52.624;9.212;2024-01-15T07:12:35;5.87;;;2.70;;
7817;SDS011;3954;52.624;9.212;2024-01-15T07:15:03;4.37;;;2.07;;
7817;SDS011;3954;52.624;9.212;2024-01-15T07:17:31;6.80;;;2.50;;
7817;SDS011;3954;52.624;9.212;2024-01-15T07:19:57;4.40;;;2.60;;
7817;SDS011;3954;52.624;9.212;2024-01-15T07:22:23;4.40;;;2.47;;
7817;SDS011;3954;52.624;9.212;2024-01-15T07:24:49;5.13;;;2.83;;
7817;SDS011;3954;52.624;9.212;2024-01-15T07:27:15;4.80;;;2.70;;
7817;SDS011;3954;52.624;9.212;2024-01-15T07:29:41;3.27;;;2.40;;
7817;SDS011;3954;52.624;9.212;2024-01-15T07:32:09;5.00;;;2.93;;
7817;SDS011;3954;52.624;9.212;2024-01-15T07:34:35;6.10;;;3.00;;
7817;SDS011;3954;52.624;9.212;2024-01-15T07:37:01;4.97;;;2.90;;
7817;SDS011;3954;52.624;9.212;2024-01-15T07:39:27;3.47;;;2.30;;
7817;SDS011;3954;52.624;9.212;2024-01-15T07:41:54;6.47;;;2.53;;
7817;SDS011;3954;52.624;9.212;2024-01-15T07:44:20;4.43;;;2.33;;
7817;SDS011;3954;52.624;9.212;2024-01-15T07:46:46;5.50;;;2.97;;
7817;SDS011;3954;52.624;9.212;2024-01-15T07:49:13;5.37;;;2.40;;
7817;SDS011;3954;52.624;9.212;2024-01-15T07:51:39;5.83;;;2.50;;
7817;SDS011;3954;52.624;9.212;2024-01-15T07:54:05;6.47;;;2.60;;
7817;SDS011;3954;52.624;9.212;2024-01-15T07:56:32;6.03;;;2.60;;
7817;SDS011;3954;52.624;9.212;2024-01-15T07:58:58;4.00;;;2.30;;
7817;SDS011;3954;52.624;9.212;2024-01-15T08:01:24;7.53;;;3.43;;
7817;SDS011;3954;52.624;9.212;2024-01-15T08:03:50;5.27;;;2.90;;
7817;SDS011;3954;52.624;9.212;2024-01-15T08:06:19;12.27;;;3.07;;
7817;SDS011;3954;52.624;9.212;2024-01-15T08:08:46;4.23;;;2.70;;
7817;SDS011;3954;52.624;9.212;2024-01-15T08:11:12;5.67;;;2.70;;
7817;SDS011;3954;52.624;9.212;2024-01-15T08:13:38;5.70;;;2.43;;
7817;SDS011;3954;52.624;9.212;2024-01-15T08:16:04;6.17;;;2.93;;
7817;SDS011;3954;52.624;9.212;2024-01-15T08:18:30;5.37;;;2.23;;
7817;SDS011;3954;52.624;9.212;2024-01-15T08:20:56;4.83;;;2.17;;
7817;SDS011;3954;52.624;9.212;2024-01-15T08:23:23;4.87;;;2.20;;
7817;SDS011;3954;52.624;9.212;2024-01-15T08:25:49;3.77;;;2.37;;
7817;SDS011;3954;52.624;9.212;2024-01-15T08:28:15;4.60;;;1.93;;
7817;SDS011;3954;52.624;9.212;2024-01-15T08:30:41;4.40;;;2.20;;
7817;SDS011;3954;52.624;9.212;2024-01-15T08:33:07;5.33;;;2.50;;
7817;SDS011;3954;52.624;9.212;2024-01-15T08:35:33;4.90;;;2.27;;
7817;SDS011;3954;52.624;9.212;2024-01-15T08:38:00;6.43;;;2.17;;
7817;SDS011;3954;52.624;9.212;2024-01-15T08:40:27;6.07;;;2.83;;
7817;SDS011;3954;52.624;9.212;2024-01-15T08:42:53;6.30;;;3.10;;
7817;SDS011;3954;52.624;9.212;2024-01-15T08:45:19;5.30;;;2.77;;
7817;SDS011;3954;52.624;9.212;2024-01-15T08:47:46;5.03;;;2.57;;
7817;SDS011;3954;52.624;9.212;2024-01-15T08:50:12;5.80;;;2.67;;
7817;SDS011;3954;52.624;9.212;2024-01-15T08:52:38;5.03;;;2.60;;
7817;SDS011;3954;52.624;9.212;2024-01-15T08:55:04;4.77;;;2.80;;
7817;SDS011;3954;52.624;9.212;2024-01-15T08:57:33;6.93;;;3.10;;
7817;SDS011;3954;52.624;9.212;2024-01-15T08:59:59;7.07;;;3.00;;
7817;SDS011;3954;52.624;9.212;2024-01-15T09:02:25;7.23;;;2.40;;
7817;SDS011;3954;52.624;9.212;2024-01-15T09:04:51;8.23;;;2.50;;
7817;SDS011;3954;52.624;9.212;2024-01-15T09:07:17;6.77;;;2.93;;
7817;SDS011;3954;52.624;9.212;2024-01-15T09:09:44;9.23;;;3.13;;
7817;SDS011;3954;52.624;9.212;2024-01-15T09:12:10;6.63;;;2.93;;
7817;SDS011;3954;52.624;9.212;2024-01-15T09:14:37;4.80;;;2.73;;
7817;SDS011;3954;52.624;9.212;2024-01-15T09:17:03;5.40;;;2.93;;
7817;SDS011;3954;52.624;9.212;2024-01-15T09:19:29;8.50;;;3.23;;
7817;SDS011;3954;52.624;9.212;2024-01-15T09:21:55;5.33;;;2.47;;
7817;SDS011;3954;52.624;9.212;2024-01-15T09:24:21;6.47;;;2.30;;
7817;SDS011;3954;52.624;9.212;2024-01-15T09:26:47;4.83;;;1.97;;
7817;SDS011;3954;52.624;9.212;2024-01-15T09:29:13;4.10;;;2.23;;
7817;SDS011;3954;52.624;9.212;2024-01-15T09:31:42;5.07;;;2.30;;
7817;SDS011;3954;52.624;9.212;2024-01-15T09:34:08;4.30;;;2.33;;
7817;SDS011;3954;52.624;9.212;2024-01-15T09:36:38;2.33;;;2.03;;
7817;SDS011;3954;52.624;9.212;2024-01-15T09:39:05;5.27;;;2.00;;
7817;SDS011;3954;52.624;9.212;2024-01-15T09:41:33;4.80;;;2.30;;
7817;SDS011;3954;52.624;9.212;2024-01-15T09:43:59;6.33;;;3.07;;
7817;SDS011;3954;52.624;9.212;2024-01-15T09:46:25;2.90;;;1.90;;
7817;SDS011;3954;52.624;9.212;2024-01-15T09:48:53;1.93;;;1.60;;
7817;SDS011;3954;52.624;9.212;2024-01-15T09:51:19;3.73;;;1.97;;
7817;SDS011;3954;52.624;9.212;2024-01-15T09:53:45;2.60;;;1.70;;
7817;SDS011;3954;52.624;9.212;2024-01-15T09:56:12;2.67;;;1.80;;
7817;SDS011;3954;52.624;9.212;2024-01-15T09:58:39;3.00;;;2.10;;
7817;SDS011;3954;52.624;9.212;2024-01-15T10:01:06;4.23;;;2.20;;
7817;SDS011;3954;52.624;9.212;2024-01-15T10:03:33;3.93;;;2.33;;
7817;SDS011;3954;52.624;9.212;2024-01-15T10:06:00;3.73;;;2.40;;
7817;SDS011;3954;52.624;9.212;2024-01-15T10:08:27;6.03;;;2.77;;
7817;SDS011;3954;52.624;9.212;2024-01-15T10:10:53;3.73;;;2.57;;
7817;SDS011;3954;52.624;9.212;2024-01-15T10:13:19;4.27;;;2.70;;
7817;SDS011;3954;52.624;9.212;2024-01-15T10:15:46;4.53;;;2.20;;
7817;SDS011;3954;52.624;9.212;2024-01-15T10:18:12;3.33;;;2.40;;
7817;SDS011;3954;52.624;9.212;2024-01-15T10:20:39;3.37;;;2.07;;
7817;SDS011;3954;52.624;9.212;2024-01-15T10:23:06;2.80;;;2.20;;
7817;SDS011;3954;52.624;9.212;2024-01-15T10:25:34;5.63;;;2.37;;
7817;SDS011;3954;52.624;9.212;2024-01-15T10:28:01;3.43;;;2.10;;
7817;SDS011;3954;52.624;9.212;2024-01-15T10:30:27;3.37;;;2.40;;
7817;SDS011;3954;52.624;9.212;2024-01-15T10:32:57;6.60;;;2.73;;
7817;SDS011;3954;52.624;9.212;2024-01-15T10:35:26;5.33;;;2.33;;
7817;SDS011;3954;52.624;9.212;2024-01-15T10:37:52;4.43;;;2.23;;
7817;SDS011;3954;52.624;9.212;2024-01-15T10:40:19;3.77;;;2.33;;
7817;SDS011;3954;52.624;9.212;2024-01-15T10:42:45;6.97;;;2.77;;
7817;SDS011;3954;52.624;9.212;2024-01-15T10:45:12;2.77;;;1.90;;
7817;SDS011;3954;52.624;9.212;2024-01-15T10:47:38;5.17;;;2.07;;
7817;SDS011;3954;52.624;9.212;2024-01-15T10:50:05;4.70;;;2.30;;
7817;SDS011;3954;52.624;9.212;2024-01-15T10:52:32;9.53;;;2.33;;
7817;SDS011;3954;52.624;9.212;2024-01-15T10:54:58;5.27;;;2.50;;
7817;SDS011;3954;52.624;9.212;2024-01-15T10:57:26;3.70;;;2.07;;
7817;SDS011;3954;52.624;9.212;2024-01-15T10:59:53;4.63;;;2.20;;
7817;SDS011;3954;52.624;9.212;2024-01-15T11:02:19;6.40;;;2.33;;
7817;SDS011;3954;52.624;9.212;2024-01-15T11:07:30;4.10;;;2.20;;
7817;SDS011;3954;52.624;9.212;2024-01-15T11:09:56;3.83;;;2.50;;
7817;SDS011;3954;52.624;9.212;2024-01-15T11:12:26;3.73;;;2.33;;
7817;SDS011;3954;52.624;9.212;2024-01-15T11:15:00;5.20;;;2.20;;
7817;SDS011;3954;52.624;9.212;2024-01-15T11:17:30;3.50;;;2.30;;
7817;SDS011;3954;52.624;9.212;2024-01-15T11:20:16;4.97;;;2.70;;
7817;SDS011;3954;52.624;9.212;2024-01-15T11:22:49;6.33;;;2.87;;
7817;SDS011;3954;52.624;9.212;2024-01-15T11:25:15;6.57;;;3.00;;
7817;SDS011;3954;52.624;9.212;2024-01-15T11:27:41;3.70;;;2.60;;
7817;SDS011;3954;52.624;9.212;2024-01-15T11:30:08;5.93;;;2.53;;
7817;SDS011;3954;52.624;9.212;2024-01-15T11:32:35;3.83;;;2.23;;
7817;SDS011;3954;52.624;9.212;2024-01-15T11:35:01;6.37;;;2.50;;
7817;SDS011;3954;52.624;9.212;2024-01-15T11:40:12;4.73;;;2.20;;
7817;SDS011;3954;52.624;9.212;2024-01-15T11:42:39;6.03;;;2.50;;
7817;SDS011;3954;52.624;9.212;2024-01-15T11:45:05;4.43;;;2.07;;
7817;SDS011;3954;52.624;9.212;2024-01-15T11:47:48;7.80;;;2.57;;
7817;SDS011;3954;52.624;9.212;2024-01-15T11:50:19;5.60;;;2.83;;
7817;SDS011;3954;52.624;9.212;2024-01-15T11:52:50;7.03;;;2.20;;
7817;SDS011;3954;52.624;9.212;2024-01-15T11:55:19;4.53;;;2.40;;
7817;SDS011;3954;52.624;9.212;2024-01-15T11:57:45;5.97;;;2.30;;
7817;SDS011;3954;52.624;9.212;2024-01-15T12:00:12;5.00;;;2.30;;
7817;SDS011;3954;52.624;9.212;2024-01-15T12:02:38;4.23;;;2.20;;
7817;SDS011;3954;52.624;9.212;2024-01-15T12:05:05;4.13;;;2.50;;
7817;SDS011;3954;52.624;9.212;2024-01-15T12:07:32;3.93;;;2.00;;
7817;SDS011;3954;52.624;9.212;2024-01-15T12:10:00;7.20;;;2.30;;
7817;SDS011;3954;52.624;9.212;2024-01-15T12:12:28;5.37;;;2.87;;
7817;SDS011;3954;52.624;9.212;2024-01-15T12:14:57;6.77;;;2.97;;
7817;SDS011;3954;52.624;9.212;2024-01-15T12:17:23;5.53;;;2.37;;
7817;SDS011;3954;52.624;9.212;2024-01-15T12:19:49;8.90;;;2.60;;
7817;SDS011;3954;52.624;9.212;2024-01-15T12:22:16;7.93;;;3.77;;
7817;SDS011;3954;52.624;9.212;2024-01-15T12:24:42;5.70;;;2.60;;
7817;SDS011;3954;52.624;9.212;2024-01-15T12:27:09;7.40;;;3.23;;
7817;SDS011;3954;52.624;9.212;2024-01-15T12:29:35;3.83;;;2.30;;
7817;SDS011;3954;52.624;9.212;2024-01-15T12:32:01;5.20;;;2.40;;
7817;SDS011;3954;52.624;9.212;2024-01-15T12:34:28;4.40;;;2.13;;
7817;SDS011;3954;52.624;9.212;2024-01-15T12:36:56;4.10;;;2.40;;
7817;SDS011;3954;52.624;9.212;2024-01-15T12:39:22;5.37;;;2.80;;
7817;SDS011;3954;52.624;9.212;2024-01-15T12:41:48;6.83;;;2.53;;
7817;SDS011;3954;52.624;9.212;2024-01-15T12:44:16;5.63;;;2.50;;
7817;SDS011;3954;52.624;9.212;2024-01-15T12:46:42;4.57;;;2.07;;
7817;SDS011;3954;52.624;9.212;2024-01-15T12:49:08;5.33;;;2.60;;
7817;SDS011;3954;52.624;9.212;2024-01-15T12:51:34;2.63;;;2.03;;
7817;SDS011;3954;52.624;9.212;2024-01-15T12:54:00;4.53;;;2.50;;
7817;SDS011;3954;52.624;9.212;2024-01-15T12:56:26;7.80;;;2.10;;
7817;SDS011;3954;52.624;9.212;2024-01-15T12:58:52;6.13;;;2.13;;
7817;SDS011;3954;52.624;9.212;2024-01-15T13:01:19;3.93;;;2.13;;
7817;SDS011;3954;52.624;9.212;2024-01-15T13:03:46;6.10;;;2.40;;
7817;SDS011;3954;52.624;9.212;2024-01-15T13:06:12;6.73;;;2.57;;
7817;SDS011;3954;52.624;9.212;2024-01-15T13:08:38;7.10;;;2.40;;
7817;SDS011;3954;52.624;9.212;2024-01-15T13:11:04;6.80;;;2.13;;
7817;SDS011;3954;52.624;9.212;2024-01-15T13:13:30;5.77;;;2.20;;
7817;SDS011;3954;52.624;9.212;2024-01-15T13:15:59;6.63;;;3.10;;
7817;SDS011;3954;52.624;9.212;2024-01-15T13:18:26;8.23;;;2.60;;
7817;SDS011;3954;52.624;9.212;2024-01-15T13:20:52;4.63;;;2.60;;
7817;SDS011;3954;52.624;9.212;2024-01-15T13:23:19;6.30;;;2.30;;
7817;SDS011;3954;52.624;9.212;2024-01-15T13:25:45;5.17;;;2.27;;
7817;SDS011;3954;52.624;9.212;2024-01-15T13:28:11;5.47;;;2.30;;
7817;SDS011;3954;52.624;9.212;2024-01-15T13:30:38;4.63;;;2.40;;
7817;SDS011;3954;52.624;9.212;2024-01-15T13:33:04;7.57;;;3.17;;
7817;SDS011;3954;52.624;9.212;2024-01-15T13:35:31;5.80;;;2.70;;
7817;SDS011;3954;52.624;9.212;2024-01-15T13:37:58;4.13;;;2.10;;
7817;SDS011;3954;52.624;9.212;2024-01-15T13:40:24;4.13;;;2.30;;
7817;SDS011;3954;52.624;9.212;2024-01-15T13:42:50;4.53;;;2.03;;
7817;SDS011;3954;52.624;9.212;2024-01-15T13:45:17;5.50;;;2.67;;
7817;SDS011;3954;52.624;9.212;2024-01-15T13:47:45;2.73;;;1.90;;
7817;SDS011;3954;52.624;9.212;2024-01-15T13:50:11;7.07;;;2.67;;
7817;SDS011;3954;52.624;9.212;2024-01-15T13:52:39;4.63;;;2.50;;
7817;SDS011;3954;52.624;9.212;2024-01-15T13:55:05;3.87;;;2.20;;
7817;SDS011;3954;52.624;9.212;2024-01-15T13:57:33;6.00;;;2.07;;
7817;SDS011;3954;52.624;9.212;2024-01-15T13:59:59;5.00;;;2.03;;
7817;SDS011;3954;52.624;9.212;2024-01-15T14:02:25;4.37;;;2.23;;
7817;SDS011;3954;52.624;9.212;2024-01-15T14:04:51;5.23;;;2.70;;
7817;SDS011;3954;52.624;9.212;2024-01-15T14:07:17;5.13;;;2.37;;
7817;SDS011;3954;52.624;9.212;2024-01-15T14:09:44;6.00;;;2.20;;
7817;SDS011;3954;52.624;9.212;2024-01-15T14:12:10;7.57;;;2.27;;
7817;SDS011;3954;52.624;9.212;2024-01-15T14:14:36;4.77;;;2.57;;
7817;SDS011;3954;52.624;9.212;2024-01-15T14:17:02;4.87;;;2.23;;
7817;SDS011;3954;52.624;9.212;2024-01-15T14:19:28;5.50;;;2.60;;
7817;SDS011;3954;52.624;9.212;2024-01-15T14:21:54;4.60;;;2.30;;
7817;SDS011;3954;52.624;9.212;2024-01-15T14:24:20;3.33;;;2.00;;
7817;SDS011;3954;52.624;9.212;2024-01-15T14:26:48;4.47;;;2.20;;
7817;SDS011;3954;52.624;9.212;2024-01-15T14:29:14;5.40;;;2.10;;
7817;SDS011;3954;52.624;9.212;2024-01-15T14:31:40;3.47;;;2.07;;
7817;SDS011;3954;52.624;9.212;2024-01-15T14:34:06;5.03;;;2.80;;
7817;SDS011;3954;52.624;9.212;2024-01-15T14:36:32;3.43;;;2.27;;
7817;SDS011;3954;52.624;9.212;2024-01-15T14:38:58;5.47;;;2.77;;
7817;SDS011;3954;52.624;9.212;2024-01-15T14:41:24;5.40;;;2.90;;
7817;SDS011;3954;52.624;9.212;2024-01-15T14:43:52;3.73;;;2.40;;
7817;SDS011;3954;52.624;9.212;2024-01-15T14:46:18;3.63;;;2.43;;
7817;SDS011;3954;52.624;9.212;2024-01-15T14:48:44;4.90;;;2.73;;
7817;SDS011;3954;52.624;9.212;2024-01-15T14:51:10;5.33;;;3.07;;
7817;SDS011;3954;52.624;9.212;2024-01-15T14:53:36;3.03;;;2.67;;
7817;SDS011;3954;52.624;9.212;2024-01-15T14:56:02;3.57;;;2.93;;
7817;SDS011;3954;52.624;9.212;2024-01-15T14:58:28;4.23;;;2.90;;
7817;SDS011;3954;52.624;9.212;2024-01-15T15:00:56;3.90;;;2.50;;
7817;SDS011;3954;52.624;9.212;2024-01-15T15:03:22;3.83;;;2.40;;
7817;SDS011;3954;52.624;9.212;2024-01-15T15:05:47;3.80;;;2.57;;
7817;SDS011;3954;52.624;9.212;2024-01-15T15:08:13;3.37;;;2.30;;
7817;SDS011;3954;52.624;9.212;2024-01-15T15:10:39;5.03;;;2.47;;
7817;SDS011;3954;52.624;9.212;2024-01-15T15:13:05;2.83;;;1.97;;
7817;SDS011;3954;52.624;9.212;2024-01-15T15:15:32;3.87;;;1.90;;